sensor_id;sensor_type;location;lat;lon;timestamp;pressure;altitude;pressure_sealevel;temperature;humidity
84190;BME280;74321;53.406;8.146;2024-03-22T00:03:41;102032.19;;;8.20;100.00
84190;BME280;74321;53.406;8.146;2024-03-22T00:08:45;102030.56;;;8.25;100.00
84190;BME280;74321;53.406;8.146;2024-03-22T00:13:46;102027.31;;;8.30;100.00
84190;BME280;74321;53.406;8.146;2024-03-22T00:18:47;102003.28;;;8.22;100.00
84190;BME280;74321;53.406;8.146;2024-03-22T00:23:48;101986.31;;;8.24;100.00
84190;BME280;74321;53.406;8.146;2024-03-22T00:28:49;101970.97;;;8.23;100.00
84190;BME280;74321;53.406;8.146;2024-03-22T00:33:50;101972.06;;;8.34;100.00
84190;BME280;74321;53.406;8.146;2024-03-22T00:38:50;101956.00;;;8.36;100.00
84190;BME280;74321;53.406;8.146;2024-03-22T00:43:51;101903.53;;;8.14;100.00
84190;BME280;74321;53.406;8.146;2024-03-22T00:48:52;101936.47;;;8.38;100.00
84190;BME280;74321;53.406;8.146;2024-03-22T00:53:55;101937.41;;;8.43;100.00
84190;BME280;74321;53.406;8.146;2024-03-22T00:58:56;101927.19;;;8.43;100.00
84190;BME280;74321;53.406;8.146;2024-03-22T01:03:56;101914.50;;;8.47;100.00
84190;BME280;74321;53.406;8.146;2024-03-22T01:08:57;101899.03;;;8.40;100.00
84190;BME280;74321;53.406;8.146;2024-03-22T01:13:58;101873.50;;;8.40;100.00
84190;BME280;74321;53.406;8.146;2024-03-22T01:18:59;101878.81;;;8.50;100.00
84190;BME280;74321;53.406;8.146;2024-03-22T01:24:01;101865.00;;;8.41;100.00
84190;BME280;74321;53.406;8.146;2024-03-22T01:29:01;101864.44;;;8.53;100.00
84190;BME280;74321;53.406;8.146;2024-03-22T01:34:02;101856.78;;;8.55;100.00
84190;BME280;74321;53.406;8.146;2024-03-22T01:39:06;101830.09;;;8.40;100.00
84190;BME280;74321;53.406;8.146;2024-03-22T01:44:07;101856.19;;;8.66;100.00
84190;BME280;74321;53.406;8.146;2024-03-22T01:49:17;101845.06;;;8.64;100.00
84190;BME280;74321;53.406;8.146;2024-03-22T01:54:19;101827.06;;;8.60;100.00
84190;BME280;74321;53.406;8.146;2024-03-22T01:59:26;101773.69;;;8.31;100.00
84190;BME280;74321;53.406;8.146;2024-03-22T02:04:29;101813.50;;;8.61;100.00
84190;BME280;74321;53.406;8.146;2024-03-22T02:09:30;101767.13;;;8.42;100.00
84190;BME280;74321;53.406;8.146;2024-03-22T02:14:31;101795.81;;;8.71;100.00
84190;BME280;74321;53.406;8.146;2024-03-22T02:19:32;101729.72;;;8.44;100.00
84190;BME280;74321;53.406;8.146;2024-03-22T02:24:33;101770.16;;;8.67;100.00
84190;BME280;74321;53.406;8.146;2024-03-22T02:29:33;101758.06;;;8.58;100.00
84190;BME280;74321;53.406;8.146;2024-03-22T02:34:34;101729.75;;;8.46;100.00
84190;BME280;74321;53.406;8.146;2024-03-22T02:39:37;101778.91;;;8.78;100.00
84190;BME280;74321;53.406;8.146;2024-03-22T02:44:38;101776.28;;;8.75;100.00
84190;BME280;74321;53.406;8.146;2024-03-22T02:49:44;101748.97;;;8.72;100.00
84190;BME280;74321;53.406;8.146;2024-03-22T02:54:45;101757.63;;;8.78;100.00
84190;BME280;74321;53.406;8.146;2024-03-22T02:59:46;101693.16;;;8.47;100.00
84190;BME280;74321;53.406;8.146;2024-03-22T03:04:47;101708.84;;;8.67;100.00
84190;BME280;74321;53.406;8.146;2024-03-22T03:09:47;101739.03;;;8.86;100.00
84190;BME280;74321;53.406;8.146;2024-03-22T03:14:48;101731.34;;;8.86;100.00
84190;BME280;74321;53.406;8.146;2024-03-22T03:19:49;101723.75;;;8.91;100.00
84190;BME280;74321;53.406;8.146;2024-03-22T03:24:50;101717.91;;;8.96;100.00
84190;BME280;74321;53.406;8.146;2024-03-22T03:29:53;101702.47;;;8.92;100.00
84190;BME280;74321;53.406;8.146;2024-03-22T03:34:54;101694.00;;;8.94;100.00
84190;BME280;74321;53.406;8.146;2024-03-22T03:39:55;101697.50;;;9.01;100.00
84190;BME280;74321;53.406;8.146;2024-03-22T03:44:56;101694.19;;;9.05;100.00
84190;BME280;74321;53.406;8.146;2024-03-22T03:49:57;101667.66;;;9.00;100.00
84190;BME280;74321;53.406;8.146;2024-03-22T03:54:58;101683.13;;;9.08;100.00
84190;BME280;74321;53.406;8.146;2024-03-22T03:59:59;101674.59;;;9.07;100.00
84190;BME280;74321;53.406;8.146;2024-03-22T04:05:00;101657.44;;;8.98;100.00
84190;BME280;74321;53.406;8.146;2024-03-22T04:10:04;101654.88;;;8.98;100.00
84190;BME280;74321;53.406;8.146;2024-03-22T04:15:08;101642.91;;;8.96;100.00
84190;BME280;74321;53.406;8.146;2024-03-22T04:20:11;101650.94;;;9.19;100.00
84190;BME280;74321;53.406;8.146;2024-03-22T04:25:12;101645.88;;;9.22;100.00
84190;BME280;74321;53.406;8.146;2024-03-22T04:30:12;101635.53;;;9.16;100.00
84190;BME280;74321;53.406;8.146;2024-03-22T04:35:13;101622.59;;;9.04;100.00
84190;BME280;74321;53.406;8.146;2024-03-22T04:40:15;101609.72;;;8.99;100.00
84190;BME280;74321;53.406;8.146;2024-03-22T04:45:18;101638.16;;;9.19;100.00
84190;BME280;74321;53.406;8.146;2024-03-22T04:50:18;101585.09;;;9.04;100.00
84190;BME280;74321;53.406;8.146;2024-03-22T04:55:19;101631.50;;;9.30;100.00
84190;BME280;74321;53.406;8.146;2024-03-22T05:00:22;101623.84;;;9.32;100.00
84190;BME280;74321;53.406;8.146;2024-03-22T05:05:25;101564.66;;;9.06;100.00
84190;BME280;74321;53.406;8.146;2024-03-22T05:10:26;101623.09;;;9.39;100.00
84190;BME280;74321;53.406;8.146;2024-03-22T05:15:27;101574.28;;;9.25;100.00
84190;BME280;74321;53.406;8.146;2024-03-22T05:20:28;101586.50;;;9.44;100.00
84190;BME280;74321;53.406;8.146;2024-03-22T05:25:29;101575.38;;;9.41;100.00
84190;BME280;74321;53.406;8.146;2024-03-22T05:30:33;101562.56;;;9.39;100.00
84190;BME280;74321;53.406;8.146;2024-03-22T05:35:33;101570.31;;;9.44;100.00
84190;BME280;74321;53.406;8.146;2024-03-22T05:40:37;101543.78;;;9.39;100.00
84190;BME280;74321;53.406;8.146;2024-03-22T05:45:46;101552.44;;;9.48;100.00
84190;BME280;74321;53.406;8.146;2024-03-22T05:50:48;101558.59;;;9.64;100.00
84190;BME280;74321;53.406;8.146;2024-03-22T05:55:50;101544.84;;;9.56;100.00
84190;BME280;74321;53.406;8.146;2024-03-22T06:00:51;101550.94;;;9.64;100.00
84190;BME280;74321;53.406;8.146;2024-03-22T06:05:57;101530.34;;;9.55;100.00
84190;BME280;74321;53.406;8.146;2024-03-22T06:11:00;101536.53;;;9.74;100.00
84190;BME280;74321;53.406;8.146;2024-03-22T06:16:01;101494.38;;;9.43;100.00
84190;BME280;74321;53.406;8.146;2024-03-22T06:21:03;101530.53;;;9.72;100.00
84190;BME280;74321;53.406;8.146;2024-03-22T06:26:03;101531.31;;;9.66;100.00
84190;BME280;74321;53.406;8.146;2024-03-22T06:31:04;101541.56;;;9.66;100.00
84190;BME280;74321;53.406;8.146;2024-03-22T06:36:05;101547.53;;;9.67;100.00
84190;BME280;74321;53.406;8.146;2024-03-22T06:41:06;101509.00;;;9.53;100.00
84190;BME280;74321;53.406;8.146;2024-03-22T06:46:09;101517.66;;;9.63;100.00
84190;BME280;74321;53.406;8.146;2024-03-22T06:51:10;101503.94;;;9.59;100.00
84190;BME280;74321;53.406;8.146;2024-03-22T06:56:10;101510.81;;;9.60;100.00
84190;BME280;74321;53.406;8.146;2024-03-22T07:01:12;101506.66;;;9.73;100.00
84190;BME280;74321;53.406;8.146;2024-03-22T07:06:14;101491.34;;;9.76;100.00
84190;BME280;74321;53.406;8.146;2024-03-22T07:11:17;101514.31;;;9.68;100.00
84190;BME280;74321;53.406;8.146;2024-03-22T07:16:21;101497.81;;;9.43;100.00
84190;BME280;74321;53.406;8.146;2024-03-22T07:21:22;101507.13;;;9.40;100.00
84190;BME280;74321;53.406;8.146;2024-03-22T07:26:22;101517.56;;;9.55;100.00
84190;BME280;74321;53.406;8.146;2024-03-22T07:31:25;101515.84;;;9.54;100.00
84190;BME280;74321;53.406;8.146;2024-03-22T07:36:30;101519.25;;;9.54;100.00
84190;BME280;74321;53.406;8.146;2024-03-22T07:41:32;101510.72;;;9.52;100.00
84190;BME280;74321;53.406;8.146;2024-03-22T07:46:33;101515.84;;;9.54;100.00
84190;BME280;74321;53.406;8.146;2024-03-22T07:51:34;101502.22;;;9.55;100.00
84190;BME280;74321;53.406;8.146;2024-03-22T07:56:34;101486.84;;;9.52;100.00
84190;BME280;74321;53.406;8.146;2024-03-22T08:01:35;101454.16;;;9.28;100.00
84190;BME280;74321;53.406;8.146;2024-03-22T08:06:36;101501.34;;;9.54;100.00
84190;BME280;74321;53.406;8.146;2024-03-22T08:11:37;101486.84;;;9.52;100.00
84190;BME280;74321;53.406;8.146;2024-03-22T08:16:42;101513.22;;;9.51;100.00
84190;BME280;74321;53.406;8.146;2024-03-22T08:21:43;101468.75;;;9.37;100.00
84190;BME280;74321;53.406;8.146;2024-03-22T08:26:44;101498.69;;;9.44;100.00
84190;BME280;74321;53.406;8.146;2024-03-22T08:31:47;101490.09;;;9.42;100.00
84190;BME280;74321;53.406;8.146;2024-03-22T08:36:48;101468.78;;;9.43;100.00
84190;BME280;74321;53.406;8.146;2024-03-22T08:41:49;101479.22;;;9.60;100.00
84190;BME280;74321;53.406;8.146;2024-03-22T08:46:50;101472.38;;;9.55;100.00
84190;BME280;74321;53.406;8.146;2024-03-22T08:51:51;101474.72;;;9.36;100.00
84190;BME280;74321;53.406;8.146;2024-03-22T08:56:51;101470.47;;;9.38;100.00
84190;BME280;74321;53.406;8.146;2024-03-22T09:01:52;101474.84;;;9.48;100.00
84190;BME280;74321;53.406;8.146;2024-03-22T09:06:55;101474.00;;;9.50;100.00
84190;BME280;74321;53.406;8.146;2024-03-22T09:11:56;101416.66;;;9.30;100.00
84190;BME280;74321;53.406;8.146;2024-03-22T09:17:00;101465.72;;;9.74;100.00
84190;BME280;74321;53.406;8.146;2024-03-22T09:22:01;101478.53;;;9.76;100.00
84190;BME280;74321;53.406;8.146;2024-03-22T09:27:03;101422.66;;;9.34;100.00
84190;BME280;74321;53.406;8.146;2024-03-22T09:32:09;101479.19;;;9.55;100.00
84190;BME280;74321;53.406;8.146;2024-03-22T09:37:10;101468.97;;;9.56;100.00
84190;BME280;74321;53.406;8.146;2024-03-22T09:42:16;101438.91;;;9.37;100.00
84190;BME280;74321;53.406;8.146;2024-03-22T09:47:18;101463.91;;;9.61;100.00
84190;BME280;74321;53.406;8.146;2024-03-22T09:52:19;101419.41;;;9.48;100.00
84190;BME280;74321;53.406;8.146;2024-03-22T09:57:22;101460.81;;;9.94;100.00
84190;BME280;74321;53.406;8.146;2024-03-22T10:02:26;101458.19;;;9.85;100.00
84190;BME280;74321;53.406;8.146;2024-03-22T10:07:27;101452.00;;;9.68;100.00
84190;BME280;74321;53.406;8.146;2024-03-22T10:12:31;101446.41;;;10.05;100.00
84190;BME280;74321;53.406;8.146;2024-03-22T10:17:32;101448.72;;;9.76;100.00
84190;BME280;74321;53.406;8.146;2024-03-22T10:22:33;101419.72;;;9.82;100.00
84190;BME280;74321;53.406;8.146;2024-03-22T10:27:34;101459.06;;;9.92;100.00
84190;BME280;74321;53.406;8.146;2024-03-22T10:32:38;101454.78;;;9.89;100.00
84190;BME280;74321;53.406;8.146;2024-03-22T10:37:39;101462.53;;;9.98;100.00
84190;BME280;74321;53.406;8.146;2024-03-22T10:42:43;101451.44;;;9.96;100.00
84190;BME280;74321;53.406;8.146;2024-03-22T10:47:46;101455.00;;;10.10;100.00
84190;BME280;74321;53.406;8.146;2024-03-22T10:52:54;101453.00;;;9.83;100.00
84190;BME280;74321;53.406;8.146;2024-03-22T10:57:57;101453.88;;;9.82;100.00
84190;BME280;74321;53.406;8.146;2024-03-22T11:02:58;101452.00;;;9.68;100.00
84190;BME280;74321;53.406;8.146;2024-03-22T11:08:03;101445.22;;;9.68;100.00
84190;BME280;74321;53.406;8.146;2024-03-22T11:13:08;101444.66;;;10.01;100.00
84190;BME280;74321;53.406;8.146;2024-03-22T11:18:09;101426.63;;;9.91;100.00
84190;BME280;74321;53.406;8.146;2024-03-22T11:23:10;101382.75;;;9.49;100.00
84190;BME280;74321;53.406;8.146;2024-03-22T11:28:11;101390.34;;;9.42;100.00
84190;BME280;74321;53.406;8.146;2024-03-22T11:33:12;101398.09;;;9.49;100.00
84190;BME280;74321;53.406;8.146;2024-03-22T11:38:13;101419.72;;;9.77;100.00
84190;BME280;74321;53.406;8.146;2024-03-22T11:43:15;101428.22;;;9.76;100.00
84190;BME280;74321;53.406;8.146;2024-03-22T11:48:17;101428.09;;;9.66;100.00
84190;BME280;74321;53.406;8.146;2024-03-22T11:53:20;101429.88;;;9.73;100.00
84190;BME280;74321;53.406;8.146;2024-03-22T11:58:21;101403.38;;;9.65;100.00
84190;BME280;74321;53.406;8.146;2024-03-22T12:03:22;101437.88;;;10.06;100.00
84190;BME280;74321;53.406;8.146;2024-03-22T12:08:23;101426.63;;;9.91;100.00
84190;BME280;74321;53.406;8.146;2024-03-22T12:13:24;101419.28;;;10.27;100.00
84190;BME280;74321;53.406;8.146;2024-03-22T12:18:25;101402.13;;;10.22;100.00
84190;BME280;74321;53.406;8.146;2024-03-22T12:23:26;101345.56;;;9.90;100.00
84190;BME280;74321;53.406;8.146;2024-03-22T12:28:29;101417.03;;;10.84;100.00
84190;BME280;74321;53.406;8.146;2024-03-22T12:33:31;101402.41;;;10.61;100.00
84190;BME280;74321;53.406;8.146;2024-03-22T12:38:31;101401.53;;;10.58;100.00
84190;BME280;74321;53.406;8.146;2024-03-22T12:43:32;101398.88;;;10.39;100.00
84190;BME280;74321;53.406;8.146;2024-03-22T12:48:33;101372.06;;;9.93;100.00
84190;BME280;74321;53.406;8.146;2024-03-22T12:53:37;101406.13;;;9.88;100.00
84190;BME280;74321;53.406;8.146;2024-03-22T12:58:41;101351.94;;;9.37;100.00
84190;BME280;74321;53.406;8.146;2024-03-22T13:03:42;101401.59;;;9.57;100.00
84190;BME280;74321;53.406;8.146;2024-03-22T13:08:42;101358.69;;;9.29;100.00
84190;BME280;74321;53.406;8.146;2024-03-22T13:13:43;101414.34;;;9.53;100.00
84190;BME280;74321;53.406;8.146;2024-03-22T13:18:44;101414.97;;;9.31;100.00
84190;BME280;74321;53.406;8.146;2024-03-22T13:23:45;101407.97;;;9.16;100.00
84190;BME280;74321;53.406;8.146;2024-03-22T13:28:46;101381.16;;;8.82;100.00
84190;BME280;74321;53.406;8.146;2024-03-22T13:33:46;101386.28;;;8.85;100.00
84190;BME280;74321;53.406;8.146;2024-03-22T13:38:48;101371.78;;;8.82;100.00
84190;BME280;74321;53.406;8.146;2024-03-22T13:43:49;101393.91;;;8.79;100.00
84190;BME280;74321;53.406;8.146;2024-03-22T13:48:49;101383.28;;;8.51;100.00
84190;BME280;74321;53.406;8.146;2024-03-22T13:53:50;101358.34;;;8.33;100.00
84190;BME280;74321;53.406;8.146;2024-03-22T13:58:51;101394.38;;;8.52;100.00
84190;BME280;74321;53.406;8.146;2024-03-22T14:03:52;101392.72;;;8.55;100.00
84190;BME280;74321;53.406;8.146;2024-03-22T14:08:56;101393.81;;;8.71;100.00
84190;BME280;74321;53.406;8.146;2024-03-22T14:14:01;101379.44;;;8.79;100.00
84190;BME280;74321;53.406;8.146;2024-03-22T14:19:05;101375.09;;;8.77;100.00
84190;BME280;74321;53.406;8.146;2024-03-22T14:24:12;101364.03;;;8.75;100.00
84190;BME280;74321;53.406;8.146;2024-03-22T14:29:13;101328.97;;;8.63;100.00
84190;BME280;74321;53.406;8.146;2024-03-22T14:34:15;101359.84;;;8.81;100.00
84190;BME280;74321;53.406;8.146;2024-03-22T14:39:16;101358.22;;;8.86;100.00
84190;BME280;74321;53.406;8.146;2024-03-22T14:44:17;101365.81;;;8.82;100.00
84190;BME280;74321;53.406;8.146;2024-03-22T14:49:18;101353.81;;;8.75;100.00
84190;BME280;74321;53.406;8.146;2024-03-22T14:54:24;101350.75;;;9.03;100.00
84190;BME280;74321;53.406;8.146;2024-03-22T14:59:30;101348.13;;;8.97;100.00
84190;BME280;74321;53.406;8.146;2024-03-22T15:04:32;101349.81;;;8.98;100.00
84190;BME280;74321;53.406;8.146;2024-03-22T15:09:36;101322.25;;;8.69;100.00
84190;BME280;74321;53.406;8.146;2024-03-22T15:14:40;101334.19;;;8.72;100.00
84190;BME280;74321;53.406;8.146;2024-03-22T15:19:44;101286.13;;;8.42;100.00
84190;BME280;74321;53.406;8.146;2024-03-22T15:24:45;101311.59;;;8.36;100.00
84190;BME280;74321;53.406;8.146;2024-03-22T15:29:46;101290.72;;;8.05;100.00
84190;BME280;74321;53.406;8.146;2024-03-22T15:34:47;101317.09;;;8.06;100.00
84190;BME280;74321;53.406;8.146;2024-03-22T15:39:48;101332.38;;;8.03;100.00
84190;BME280;74321;53.406;8.146;2024-03-22T15:44:52;101324.84;;;8.12;100.00
84190;BME280;74321;53.406;8.146;2024-03-22T15:49:53;101323.16;;;8.11;100.00
84190;BME280;74321;53.406;8.146;2024-03-22T15:54:55;101314.56;;;8.07;100.00
84190;BME280;74321;53.406;8.146;2024-03-22T15:59:56;101315.56;;;8.17;100.00
84190;BME280;74321;53.406;8.146;2024-03-22T16:04:57;101294.22;;;8.12;100.00
84190;BME280;74321;53.406;8.146;2024-03-22T16:09:58;101309.88;;;8.35;100.00
84190;BME280;74321;53.406;8.146;2024-03-22T16:15:02;101286.88;;;8.35;100.00
84190;BME280;74321;53.406;8.146;2024-03-22T16:20:08;101303.34;;;8.57;100.00
84190;BME280;74321;53.406;8.146;2024-03-22T16:25:13;101300.44;;;8.32;100.00
84190;BME280;74321;53.406;8.146;2024-03-22T16:30:14;101319.91;;;8.24;100.00
84190;BME280;74321;53.406;8.146;2024-03-22T16:35:17;101313.09;;;8.25;100.00
84190;BME280;74321;53.406;8.146;2024-03-22T16:40:21;101273.56;;;7.95;100.00
84190;BME280;74321;53.406;8.146;2024-03-22T16:45:22;101307.72;;;8.03;100.00
84190;BME280;74321;53.406;8.146;2024-03-22T16:50:26;101305.94;;;7.99;100.00
84190;BME280;74321;53.406;8.146;2024-03-22T16:55:27;101286.22;;;7.87;100.00
84190;BME280;74321;53.406;8.146;2024-03-22T17:00:28;101299.69;;;7.79;100.00
84190;BME280;74321;53.406;8.146;2024-03-22T17:05:31;101267.72;;;7.46;100.00
84190;BME280;74321;53.406;8.146;2024-03-22T17:10:33;101296.78;;;7.56;100.00
84190;BME280;74321;53.406;8.146;2024-03-22T17:15:34;101284.63;;;7.41;100.00
84190;BME280;74321;53.406;8.146;2024-03-22T17:20:38;101279.41;;;7.35;100.00
84190;BME280;74321;53.406;8.146;2024-03-22T17:25:40;101285.13;;;7.20;100.00
84190;BME280;74321;53.406;8.146;2024-03-22T17:30:45;101308.97;;;7.22;100.00
84190;BME280;74321;53.406;8.146;2024-03-22T17:35:46;101299.38;;;7.09;100.00
84190;BME280;74321;53.406;8.146;2024-03-22T17:40:48;101314.72;;;7.12;100.00
84190;BME280;74321;53.406;8.146;2024-03-22T17:45:58;101300.78;;;6.95;100.00
84190;BME280;74321;53.406;8.146;2024-03-22T17:50:59;101314.41;;;6.95;100.00
84190;BME280;74321;53.406;8.146;2024-03-22T17:55:59;101312.56;;;6.88;100.00
84190;BME280;74321;53.406;8.146;2024-03-22T18:01:00;101306.38;;;6.75;100.00
84190;BME280;74321;53.406;8.146;2024-03-22T18:06:01;101297.84;;;6.73;100.00
84190;BME280;74321;53.406;8.146;2024-03-22T18:11:04;101301.97;;;6.67;100.00
84190;BME280;74321;53.406;8.146;2024-03-22T18:16:06;101302.63;;;6.58;100.00
84190;BME280;74321;53.406;8.146;2024-03-22T18:21:06;101314.47;;;6.56;100.00
84190;BME280;74321;53.406;8.146;2024-03-22T18:26:09;101311.78;;;6.48;100.00
84190;BME280;74321;53.406;8.146;2024-03-22T18:31:13;101271.56;;;6.32;100.00
84190;BME280;74321;53.406;8.146;2024-03-22T18:36:14;101304.72;;;6.37;100.00
84190;BME280;74321;53.406;8.146;2024-03-22T18:41:15;101301.31;;;6.36;100.00
84190;BME280;74321;53.406;8.146;2024-03-22T18:46:16;101298.56;;;6.26;100.00
84190;BME280;74321;53.406;8.146;2024-03-22T18:51:17;101294.34;;;6.28;100.00
84190;BME280;74321;53.406;8.146;2024-03-22T18:56:18;101279.69;;;6.16;100.00
84190;BME280;74321;53.406;8.146;2024-03-22T19:01:19;101268.53;;;6.11;100.00
84190;BME280;74321;53.406;8.146;2024-03-22T19:06:20;101274.31;;;6.04;100.00
84190;BME280;74321;53.406;8.146;2024-03-22T19:11:20;101281.91;;;6.02;100.00
84190;BME280;74321;53.406;8.146;2024-03-22T19:16:21;101259.63;;;5.90;100.00
84190;BME280;74321;53.406;8.146;2024-03-22T19:21:22;101277.03;;;6.11;100.00
84190;BME280;74321;53.406;8.146;2024-03-22T19:26:23;101274.56;;;6.14;100.00
84190;BME280;74321;53.406;8.146;2024-03-22T19:31:24;101264.16;;;6.04;100.00
84190;BME280;74321;53.406;8.146;2024-03-22T19:36:25;101278.69;;;6.09;100.00
84190;BME280;74321;53.406;8.146;2024-03-22T19:41:27;101242.94;;;6.03;100.00
84190;BME280;74321;53.406;8.146;2024-03-22T19:46:29;101253.28;;;6.11;100.00
84190;BME280;74321;53.406;8.146;2024-03-22T19:51:33;101248.16;;;6.09;100.00
84190;BME280;74321;53.406;8.146;2024-03-22T19:56:34;101242.75;;;5.94;100.00
84190;BME280;74321;53.406;8.146;2024-03-22T20:01:35;101251.34;;;5.99;100.00
84190;BME280;74321;53.406;8.146;2024-03-22T20:06:35;101251.00;;;5.85;100.00
84190;BME280;74321;53.406;8.146;2024-03-22T20:11:36;101231.25;;;5.74;100.00
84190;BME280;74321;53.406;8.146;2024-03-22T20:16:37;101274.28;;;6.02;100.00
84190;BME280;74321;53.406;8.146;2024-03-22T20:21:39;101245.22;;;5.91;100.00
84190;BME280;74321;53.406;8.146;2024-03-22T20:26:40;101261.34;;;5.91;100.00
84190;BME280;74321;53.406;8.146;2024-03-22T20:31:40;101266.28;;;5.87;100.00
84190;BME280;74321;53.406;8.146;2024-03-22T20:36:41;101267.06;;;5.83;100.00
